sensor_id;sensor_type;location;lat;lon;timestamp;temperature;humidity
29731;DHT22;16639;51.488;0.152;2023-07-31T00:00:55;16.80;99.90
29731;DHT22;16639;51.488;0.152;2023-07-31T00:03:22;16.90;99.90
29731;DHT22;16639;51.488;0.152;2023-07-31T00:05:50;16.80;99.90
29731;DHT22;16639;51.488;0.152;2023-07-31T00:08:17;16.90;99.90
29731;DHT22;16639;51.488;0.152;2023-07-31T00:10:45;16.90;99.90
29731;DHT22;16639;51.488;0.152;2023-07-31T00:13:12;16.90;99.90
29731;DHT22;16639;51.488;0.152;2023-07-31T00:15:40;16.90;99.90
29731;DHT22;16639;51.488;0.152;2023-07-31T00:18:07;16.80;99.90
29731;DHT22;16639;51.488;0.152;2023-07-31T00:20:34;16.90;99.90
29731;DHT22;16639;51.488;0.152;2023-07-31T00:23:02;16.90;99.90
29731;DHT22;16639;51.488;0.152;2023-07-31T00:25:29;16.90;99.90
29731;DHT22;16639;51.488;0.152;2023-07-31T00:27:57;16.90;99.90
29731;DHT22;16639;51.488;0.152;2023-07-31T00:30:24;16.90;99.90
29731;DHT22;16639;51.488;0.152;2023-07-31T00:32:52;16.90;99.90
29731;DHT22;16639;51.488;0.152;2023-07-31T00:35:20;16.90;99.90
29731;DHT22;16639;51.488;0.152;2023-07-31T00:37:47;16.90;99.90
29731;DHT22;16639;51.488;0.152;2023-07-31T00:40:14;16.90;99.90
29731;DHT22;16639;51.488;0.152;2023-07-31T00:42:42;16.80;99.90
29731;DHT22;16639;51.488;0.152;2023-07-31T00:45:09;17.00;99.90
29731;DHT22;16639;51.488;0.152;2023-07-31T00:47:37;16.90;99.90
29731;DHT22;16639;51.488;0.152;2023-07-31T00:50:05;16.90;99.90
29731;DHT22;16639;51.488;0.152;2023-07-31T00:52:32;16.90;99.90
29731;DHT22;16639;51.488;0.152;2023-07-31T00:55:00;16.90;99.90
29731;DHT22;16639;51.488;0.152;2023-07-31T00:57:27;16.90;99.90
29731;DHT22;16639;51.488;0.152;2023-07-31T00:59:55;16.90;99.90
29731;DHT22;16639;51.488;0.152;2023-07-31T01:02:22;16.90;99.90
29731;DHT22;16639;51.488;0.152;2023-07-31T01:04:50;16.90;99.90
29731;DHT22;16639;51.488;0.152;2023-07-31T01:07:25;16.90;99.90
29731;DHT22;16639;51.488;0.152;2023-07-31T01:10:23;16.90;99.90
29731;DHT22;16639;51.488;0.152;2023-07-31T01:12:48;16.90;99.90
29731;DHT22;16639;51.488;0.152;2023-07-31T01:15:17;16.90;99.90
29731;DHT22;16639;51.488;0.152;2023-07-31T01:17:44;16.90;99.90
29731;DHT22;16639;51.488;0.152;2023-07-31T01:20:18;16.90;99.90
29731;DHT22;16639;51.488;0.152;2023-07-31T01:28:20;16.70;99.90
29731;DHT22;16639;51.488;0.152;2023-07-31T01:30:51;16.90;99.90
29731;DHT22;16639;51.488;0.152;2023-07-31T01:33:20;16.90;99.90
29731;DHT22;16639;51.488;0.152;2023-07-31T01:35:48;16.90;99.90
29731;DHT22;16639;51.488;0.152;2023-07-31T01:38:21;16.90;99.90
29731;DHT22;16639;51.488;0.152;2023-07-31T01:40:52;16.90;99.90
29731;DHT22;16639;51.488;0.152;2023-07-31T01:43:20;17.00;99.90
29731;DHT22;16639;51.488;0.152;2023-07-31T01:45:48;17.00;99.90
29731;DHT22;16639;51.488;0.152;2023-07-31T01:48:15;17.00;99.90
29731;DHT22;16639;51.488;0.152;2023-07-31T01:50:43;17.00;99.90
29731;DHT22;16639;51.488;0.152;2023-07-31T01:53:10;17.00;99.90
29731;DHT22;16639;51.488;0.152;2023-07-31T01:55:39;17.00;99.90
29731;DHT22;16639;51.488;0.152;2023-07-31T01:58:07;16.90;99.90
29731;DHT22;16639;51.488;0.152;2023-07-31T02:00:34;17.00;99.90
29731;DHT22;16639;51.488;0.152;2023-07-31T02:03:02;17.00;99.90
29731;DHT22;16639;51.488;0.152;2023-07-31T02:05:29;17.00;99.90
29731;DHT22;16639;51.488;0.152;2023-07-31T02:07:56;17.00;99.90
29731;DHT22;16639;51.488;0.152;2023-07-31T02:10:24;17.00;99.90
29731;DHT22;16639;51.488;0.152;2023-07-31T02:12:51;17.00;99.90
29731;DHT22;16639;51.488;0.152;2023-07-31T02:15:18;17.00;99.90
29731;DHT22;16639;51.488;0.152;2023-07-31T02:17:46;17.00;99.90
29731;DHT22;16639;51.488;0.152;2023-07-31T02:20:13;16.80;99.90
29731;DHT22;16639;51.488;0.152;2023-07-31T02:22:41;17.00;99.90
29731;DHT22;16639;51.488;0.152;2023-07-31T02:25:08;17.00;99.90
29731;DHT22;16639;51.488;0.152;2023-07-31T02:27:35;17.00;99.90
29731;DHT22;16639;51.488;0.152;2023-07-31T02:30:03;17.00;99.90
29731;DHT22;16639;51.488;0.152;2023-07-31T02:32:30;17.10;99.90
29731;DHT22;16639;51.488;0.152;2023-07-31T02:34:58;17.10;99.90
29731;DHT22;16639;51.488;0.152;2023-07-31T02:37:25;17.10;99.90
29731;DHT22;16639;51.488;0.152;2023-07-31T02:39:53;17.10;99.90
29731;DHT22;16639;51.488;0.152;2023-07-31T02:42:20;17.10;99.90
29731;DHT22;16639;51.488;0.152;2023-07-31T02:44:48;17.10;99.90
29731;DHT22;16639;51.488;0.152;2023-07-31T02:47:15;17.10;99.90
29731;DHT22;16639;51.488;0.152;2023-07-31T02:49:43;17.10;99.90
29731;DHT22;16639;51.488;0.152;2023-07-31T02:52:10;17.10;99.90
29731;DHT22;16639;51.488;0.152;2023-07-31T02:54:38;17.10;99.90
29731;DHT22;16639;51.488;0.152;2023-07-31T02:57:05;17.20;99.90
29731;DHT22;16639;51.488;0.152;2023-07-31T02:59:32;17.10;99.90
29731;DHT22;16639;51.488;0.152;2023-07-31T03:02:00;17.20;99.90
29731;DHT22;16639;51.488;0.152;2023-07-31T03:04:27;17.20;99.90
29731;DHT22;16639;51.488;0.152;2023-07-31T03:06:55;17.10;99.90
29731;DHT22;16639;51.488;0.152;2023-07-31T03:09:22;17.10;99.90
29731;DHT22;16639;51.488;0.152;2023-07-31T03:11:50;17.20;99.90
29731;DHT22;16639;51.488;0.152;2023-07-31T03:14:17;17.20;99.90
29731;DHT22;16639;51.488;0.152;2023-07-31T03:16:44;17.20;99.90
29731;DHT22;16639;51.488;0.152;2023-07-31T03:19:12;17.20;99.90
29731;DHT22;16639;51.488;0.152;2023-07-31T03:21:39;17.20;99.90
29731;DHT22;16639;51.488;0.152;2023-07-31T03:24:07;17.20;99.90
29731;DHT22;16639;51.488;0.152;2023-07-31T03:26:34;17.20;99.90
29731;DHT22;16639;51.488;0.152;2023-07-31T03:29:04;17.30;99.90
29731;DHT22;16639;51.488;0.152;2023-07-31T03:31:31;17.10;99.90
29731;DHT22;16639;51.488;0.152;2023-07-31T03:33:59;17.30;99.90
29731;DHT22;16639;51.488;0.152;2023-07-31T03:36:26;17.30;99.90
29731;DHT22;16639;51.488;0.152;2023-07-31T03:38:53;17.30;99.90
29731;DHT22;16639;51.488;0.152;2023-07-31T03:41:21;17.30;99.90
29731;DHT22;16639;51.488;0.152;2023-07-31T03:43:50;17.30;99.90
29731;DHT22;16639;51.488;0.152;2023-07-31T03:46:24;17.20;99.90
29731;DHT22;16639;51.488;0.152;2023-07-31T03:48:51;17.30;99.90
29731;DHT22;16639;51.488;0.152;2023-07-31T03:51:19;17.30;99.90
29731;DHT22;16639;51.488;0.152;2023-07-31T03:53:46;17.30;99.90
29731;DHT22;16639;51.488;0.152;2023-07-31T03:56:13;17.30;99.90
29731;DHT22;16639;51.488;0.152;2023-07-31T03:58:41;17.30;99.90
29731;DHT22;16639;51.488;0.152;2023-07-31T04:01:08;17.30;99.90
29731;DHT22;16639;51.488;0.152;2023-07-31T04:03:36;17.30;99.90
29731;DHT22;16639;51.488;0.152;2023-07-31T04:06:03;17.30;99.90
29731;DHT22;16639;51.488;0.152;2023-07-31T04:08:30;17.30;99.90
29731;DHT22;16639;51.488;0.152;2023-07-31T04:10:58;17.30;99.90
29731;DHT22;16639;51.488;0.152;2023-07-31T04:13:25;17.40;99.90
29731;DHT22;16639;51.488;0.152;2023-07-31T04:15:54;17.40;99.90
29731;DHT22;16639;51.488;0.152;2023-07-31T04:18:24;17.40;99.90
29731;DHT22;16639;51.488;0.152;2023-07-31T04:20:51;17.40;99.90
29731;DHT22;16639;51.488;0.152;2023-07-31T04:23:19;17.40;99.90
29731;DHT22;16639;51.488;0.152;2023-07-31T04:25:46;18.00;99.90
29731;DHT22;16639;51.488;0.152;2023-07-31T04:28:14;17.40;99.90
29731;DHT22;16639;51.488;0.152;2023-07-31T04:30:41;17.40;99.90
29731;DHT22;16639;51.488;0.152;2023-07-31T04:33:09;17.40;99.90
29731;DHT22;16639;51.488;0.152;2023-07-31T04:35:36;17.40;99.90
29731;DHT22;16639;51.488;0.152;2023-07-31T04:38:04;17.10;99.90
29731;DHT22;16639;51.488;0.152;2023-07-31T04:40:31;17.90;99.90
29731;DHT22;16639;51.488;0.152;2023-07-31T04:42:58;17.40;99.90
29731;DHT22;16639;51.488;0.152;2023-07-31T04:45:26;17.50;99.90
29731;DHT22;16639;51.488;0.152;2023-07-31T04:47:53;17.40;99.90
29731;DHT22;16639;51.488;0.152;2023-07-31T04:50:20;17.50;99.90
29731;DHT22;16639;51.488;0.152;2023-07-31T04:52:48;17.50;99.90
29731;DHT22;16639;51.488;0.152;2023-07-31T04:55:15;17.50;99.90
29731;DHT22;16639;51.488;0.152;2023-07-31T04:57:43;17.40;99.90
29731;DHT22;16639;51.488;0.152;2023-07-31T05:00:10;17.50;99.90
29731;DHT22;16639;51.488;0.152;2023-07-31T05:02:38;17.50;99.90
29731;DHT22;16639;51.488;0.152;2023-07-31T05:05:05;17.50;99.90
29731;DHT22;16639;51.488;0.152;2023-07-31T05:07:33;17.50;99.90
29731;DHT22;16639;51.488;0.152;2023-07-31T05:10:00;17.50;99.90
29731;DHT22;16639;51.488;0.152;2023-07-31T05:12:27;17.50;99.90
29731;DHT22;16639;51.488;0.152;2023-07-31T05:14:55;17.50;99.90
29731;DHT22;16639;51.488;0.152;2023-07-31T05:17:22;17.50;99.90
29731;DHT22;16639;51.488;0.152;2023-07-31T05:19:50;17.60;99.90
29731;DHT22;16639;51.488;0.152;2023-07-31T05:22:17;17.60;99.90
29731;DHT22;16639;51.488;0.152;2023-07-31T05:24:45;17.60;99.90
29731;DHT22;16639;51.488;0.152;2023-07-31T05:27:12;17.60;99.90
29731;DHT22;16639;51.488;0.152;2023-07-31T05:29:42;17.60;99.90
29731;DHT22;16639;51.488;0.152;2023-07-31T05:32:09;17.60;99.90
29731;DHT22;16639;51.488;0.152;2023-07-31T05:34:36;17.60;99.90
29731;DHT22;16639;51.488;0.152;2023-07-31T05:37:04;17.60;99.90
29731;DHT22;16639;51.488;0.152;2023-07-31T05:39:33;17.60;99.90
29731;DHT22;16639;51.488;0.152;2023-07-31T05:42:00;17.50;99.90
29731;DHT22;16639;51.488;0.152;2023-07-31T05:44:28;17.60;99.90
29731;DHT22;16639;51.488;0.152;2023-07-31T05:46:55;17.70;99.90
29731;DHT22;16639;51.488;0.152;2023-07-31T05:49:23;17.70;99.90
29731;DHT22;16639;51.488;0.152;2023-07-31T05:51:50;17.70;99.90
29731;DHT22;16639;51.488;0.152;2023-07-31T05:54:18;17.70;99.90
29731;DHT22;16639;51.488;0.152;2023-07-31T05:56:45;17.70;99.90
29731;DHT22;16639;51.488;0.152;2023-07-31T05:59:13;17.70;99.90
29731;DHT22;16639;51.488;0.152;2023-07-31T06:01:40;17.80;99.90
29731;DHT22;16639;51.488;0.152;2023-07-31T06:04:08;17.80;99.90
29731;DHT22;16639;51.488;0.152;2023-07-31T06:06:35;17.80;99.90
29731;DHT22;16639;51.488;0.152;2023-07-31T06:09:03;17.90;99.90
29731;DHT22;16639;51.488;0.152;2023-07-31T06:11:31;17.90;99.90
29731;DHT22;16639;51.488;0.152;2023-07-31T06:13:58;17.90;99.90
29731;DHT22;16639;51.488;0.152;2023-07-31T06:16:25;17.90;99.90
29731;DHT22;16639;51.488;0.152;2023-07-31T06:18:54;17.90;99.90
29731;DHT22;16639;51.488;0.152;2023-07-31T06:21:21;18.00;99.90
29731;DHT22;16639;51.488;0.152;2023-07-31T06:23:49;18.00;99.90
29731;DHT22;16639;51.488;0.152;2023-07-31T06:26:16;18.00;99.90
29731;DHT22;16639;51.488;0.152;2023-07-31T06:28:43;18.00;99.90
29731;DHT22;16639;51.488;0.152;2023-07-31T06:31:11;18.00;99.90
29731;DHT22;16639;51.488;0.152;2023-07-31T06:33:39;18.10;99.90
29731;DHT22;16639;51.488;0.152;2023-07-31T06:36:06;18.20;99.90
29731;DHT22;16639;51.488;0.152;2023-07-31T06:38:33;18.20;99.90
29731;DHT22;16639;51.488;0.152;2023-07-31T06:41:01;18.30;99.90
29731;DHT22;16639;51.488;0.152;2023-07-31T06:43:28;18.30;99.90
29731;DHT22;16639;51.488;0.152;2023-07-31T06:45:55;18.30;99.90
29731;DHT22;16639;51.488;0.152;2023-07-31T06:48:23;18.40;99.90
29731;DHT22;16639;51.488;0.152;2023-07-31T06:50:50;18.40;99.90
29731;DHT22;16639;51.488;0.152;2023-07-31T06:53:18;18.40;99.90
29731;DHT22;16639;51.488;0.152;2023-07-31T06:55:45;18.50;99.90
29731;DHT22;16639;51.488;0.152;2023-07-31T06:58:12;18.50;99.90
29731;DHT22;16639;51.488;0.152;2023-07-31T07:00:40;18.50;99.90
29731;DHT22;16639;51.488;0.152;2023-07-31T07:03:07;18.50;99.90
29731;DHT22;16639;51.488;0.152;2023-07-31T07:05:35;18.50;99.90
29731;DHT22;16639;51.488;0.152;2023-07-31T07:08:02;18.50;99.90
29731;DHT22;16639;51.488;0.152;2023-07-31T07:10:30;18.50;99.90
29731;DHT22;16639;51.488;0.152;2023-07-31T07:12:57;18.50;99.90
29731;DHT22;16639;51.488;0.152;2023-07-31T07:15:24;18.60;99.90
29731;DHT22;16639;51.488;0.152;2023-07-31T07:17:52;18.60;99.90
29731;DHT22;16639;51.488;0.152;2023-07-31T07:20:19;18.70;99.90
29731;DHT22;16639;51.488;0.152;2023-07-31T07:22:47;18.70;99.90
29731;DHT22;16639;51.488;0.152;2023-07-31T07:25:14;18.70;99.90
29731;DHT22;16639;51.488;0.152;2023-07-31T07:27:42;18.70;99.90
29731;DHT22;16639;51.488;0.152;2023-07-31T07:30:09;18.80;99.90
29731;DHT22;16639;51.488;0.152;2023-07-31T07:32:37;18.80;99.90
29731;DHT22;16639;51.488;0.152;2023-07-31T07:35:04;18.90;99.90
29731;DHT22;16639;51.488;0.152;2023-07-31T07:37:32;18.90;99.90
29731;DHT22;16639;51.488;0.152;2023-07-31T07:40:00;19.00;99.90
29731;DHT22;16639;51.488;0.152;2023-07-31T07:42:27;18.90;99.90
29731;DHT22;16639;51.488;0.152;2023-07-31T07:44:54;18.90;99.90
29731;DHT22;16639;51.488;0.152;2023-07-31T07:47:22;19.00;99.90
29731;DHT22;16639;51.488;0.152;2023-07-31T07:49:49;19.10;99.90
29731;DHT22;16639;51.488;0.152;2023-07-31T07:52:19;19.10;99.90
29731;DHT22;16639;51.488;0.152;2023-07-31T07:54:47;19.10;99.90
29731;DHT22;16639;51.488;0.152;2023-07-31T07:57:14;19.00;99.90
29731;DHT22;16639;51.488;0.152;2023-07-31T07:59:42;19.00;99.90
29731;DHT22;16639;51.488;0.152;2023-07-31T08:02:09;19.10;99.90
29731;DHT22;16639;51.488;0.152;2023-07-31T08:04:39;19.10;99.90
29731;DHT22;16639;51.488;0.152;2023-07-31T08:07:07;19.10;99.90
29731;DHT22;16639;51.488;0.152;2023-07-31T08:09:34;19.10;99.90
29731;DHT22;16639;51.488;0.152;2023-07-31T08:12:02;19.10;99.90
29731;DHT22;16639;51.488;0.152;2023-07-31T08:14:30;19.20;99.90
29731;DHT22;16639;51.488;0.152;2023-07-31T08:17:00;19.20;99.90
29731;DHT22;16639;51.488;0.152;2023-07-31T08:19:28;19.30;99.90
29731;DHT22;16639;51.488;0.152;2023-07-31T08:21:55;19.30;99.90
29731;DHT22;16639;51.488;0.152;2023-07-31T08:24:24;19.40;99.90
29731;DHT22;16639;51.488;0.152;2023-07-31T08:26:52;19.40;99.90
29731;DHT22;16639;51.488;0.152;2023-07-31T08:29:19;19.50;99.90
29731;DHT22;16639;51.488;0.152;2023-07-31T08:31:46;19.50;99.90
29731;DHT22;16639;51.488;0.152;2023-07-31T08:34:14;19.50;99.90
29731;DHT22;16639;51.488;0.152;2023-07-31T08:36:41;19.50;99.90
29731;DHT22;16639;51.488;0.152;2023-07-31T08:39:09;19.50;99.90
29731;DHT22;16639;51.488;0.152;2023-07-31T08:41:40;19.50;99.90
29731;DHT22;16639;51.488;0.152;2023-07-31T08:44:07;19.40;99.90
29731;DHT22;16639;51.488;0.152;2023-07-31T08:46:35;19.50;99.90
29731;DHT22;16639;51.488;0.152;2023-07-31T08:49:04;19.50;99.90
29731;DHT22;16639;51.488;0.152;2023-07-31T08:51:36;19.50;99.90
29731;DHT22;16639;51.488;0.152;2023-07-31T08:54:03;19.50;99.90
29731;DHT22;16639;51.488;0.152;2023-07-31T08:56:35;19.50;99.90
29731;DHT22;16639;51.488;0.152;2023-07-31T08:59:04;19.60;99.90
29731;DHT22;16639;51.488;0.152;2023-07-31T09:01:38;19.50;99.90
29731;DHT22;16639;51.488;0.152;2023-07-31T09:04:09;19.50;99.90
29731;DHT22;16639;51.488;0.152;2023-07-31T09:06:38;19.50;99.90
29731;DHT22;16639;51.488;0.152;2023-07-31T09:09:07;19.60;99.90
29731;DHT22;16639;51.488;0.152;2023-07-31T09:11:34;19.40;99.90
29731;DHT22;16639;51.488;0.152;2023-07-31T09:14:03;19.80;99.90
29731;DHT22;16639;51.488;0.152;2023-07-31T09:16:35;19.70;99.90
29731;DHT22;16639;51.488;0.152;2023-07-31T09:19:03;19.70;99.90
29731;DHT22;16639;51.488;0.152;2023-07-31T09:21:32;19.50;99.90
29731;DHT22;16639;51.488;0.152;2023-07-31T09:23:59;19.60;99.90
29731;DHT22;16639;51.488;0.152;2023-07-31T09:26:31;19.60;99.90
29731;DHT22;16639;51.488;0.152;2023-07-31T09:29:00;19.70;99.90
29731;DHT22;16639;51.488;0.152;2023-07-31T09:31:47;19.70;99.90
29731;DHT22;16639;51.488;0.152;2023-07-31T09:34:14;19.70;99.90
29731;DHT22;16639;51.488;0.152;2023-07-31T09:36:49;19.70;99.90
29731;DHT22;16639;51.488;0.152;2023-07-31T09:39:18;19.70;99.90
29731;DHT22;16639;51.488;0.152;2023-07-31T09:41:53;19.60;99.90
29731;DHT22;16639;51.488;0.152;2023-07-31T09:44:20;19.60;99.90
29731;DHT22;16639;51.488;0.152;2023-07-31T09:46:48;19.60;99.90
29731;DHT22;16639;51.488;0.152;2023-07-31T09:49:17;19.60;99.90
29731;DHT22;16639;51.488;0.152;2023-07-31T09:51:44;19.60;99.90
29731;DHT22;16639;51.488;0.152;2023-07-31T09:54:16;19.60;99.90
29731;DHT22;16639;51.488;0.152;2023-07-31T09:56:46;19.60;99.90
29731;DHT22;16639;51.488;0.152;2023-07-31T09:59:15;19.70;99.90
29731;DHT22;16639;51.488;0.152;2023-07-31T10:01:46;19.80;99.90
29731;DHT22;16639;51.488;0.152;2023-07-31T10:04:14;19.90;99.90
29731;DHT22;16639;51.488;0.152;2023-07-31T10:06:43;20.00;99.90
29731;DHT22;16639;51.488;0.152;2023-07-31T10:09:12;20.10;99.90
29731;DHT22;16639;51.488;0.152;2023-07-31T10:11:56;20.20;99.90
29731;DHT22;16639;51.488;0.152;2023-07-31T10:14:27;20.10;99.90
29731;DHT22;16639;51.488;0.152;2023-07-31T10:16:57;20.10;99.90
29731;DHT22;16639;51.488;0.152;2023-07-31T10:19:26;20.10;99.90
29731;DHT22;16639;51.488;0.152;2023-07-31T10:21:55;20.20;99.90
29731;DHT22;16639;51.488;0.152;2023-07-31T10:24:25;20.20;99.90
29731;DHT22;16639;51.488;0.152;2023-07-31T10:26:57;20.10;99.90
29731;DHT22;16639;51.488;0.152;2023-07-31T10:29:27;20.10;99.90
29731;DHT22;16639;51.488;0.152;2023-07-31T10:31:58;20.10;99.90
29731;DHT22;16639;51.488;0.152;2023-07-31T10:34:26;20.00;99.90
29731;DHT22;16639;51.488;0.152;2023-07-31T10:37:59;20.00;99.90
29731;DHT22;16639;51.488;0.152;2023-07-31T10:40:11;20.00;99.90
29731;DHT22;16639;51.488;0.152;2023-07-31T10:42:50;20.00;99.90
29731;DHT22;16639;51.488;0.152;2023-07-31T10:48:07;20.00;99.90
29731;DHT22;16639;51.488;0.152;2023-07-31T10:50:40;20.10;99.90
29731;DHT22;16639;51.488;0.152;2023-07-31T10:53:28;20.10;99.90
29731;DHT22;16639;51.488;0.152;2023-07-31T10:56:02;20.20;99.90
29731;DHT22;16639;51.488;0.152;2023-07-31T10:58:31;20.30;99.90
29731;DHT22;16639;51.488;0.152;2023-07-31T11:01:02;20.40;99.90
29731;DHT22;16639;51.488;0.152;2023-07-31T11:03:47;20.50;99.90
29731;DHT22;16639;51.488;0.152;2023-07-31T11:06:16;20.70;99.90
29731;DHT22;16639;51.488;0.152;2023-07-31T11:08:50;20.70;99.90
29731;DHT22;16639;51.488;0.152;2023-07-31T11:11:19;20.80;99.90
29731;DHT22;16639;51.488;0.152;2023-07-31T11:13:48;20.70;99.90
29731;DHT22;16639;51.488;0.152;2023-07-31T11:16:19;20.70;99.90
29731;DHT22;16639;51.488;0.152;2023-07-31T11:18:48;20.70;99.90
29731;DHT22;16639;51.488;0.152;2023-07-31T11:21:18;20.60;99.90
29731;DHT22;16639;51.488;0.152;2023-07-31T11:23:47;20.60;99.90
29731;DHT22;16639;51.488;0.152;2023-07-31T11:26:15;20.50;99.90
29731;DHT22;16639;51.488;0.152;2023-07-31T11:28:49;20.40;99.90
29731;DHT22;16639;51.488;0.152;2023-07-31T11:31:18;20.30;99.90
29731;DHT22;16639;51.488;0.152;2023-07-31T11:33:46;20.20;99.90
29731;DHT22;16639;51.488;0.152;2023-07-31T11:36:18;20.20;99.90
29731;DHT22;16639;51.488;0.152;2023-07-31T11:38:46;20.10;99.90
29731;DHT22;16639;51.488;0.152;2023-07-31T11:41:17;20.10;99.90
29731;DHT22;16639;51.488;0.152;2023-07-31T11:43:46;20.10;99.90
29731;DHT22;16639;51.488;0.152;2023-07-31T11:46:15;20.10;99.90
29731;DHT22;16639;51.488;0.152;2023-07-31T11:48:43;20.20;99.90
29731;DHT22;16639;51.488;0.152;2023-07-31T11:51:12;20.20;99.90
29731;DHT22;16639;51.488;0.152;2023-07-31T11:53:52;20.30;99.90
29731;DHT22;16639;51.488;0.152;2023-07-31T11:56:21;20.30;99.90
29731;DHT22;16639;51.488;0.152;2023-07-31T11:58:59;20.30;99.90
29731;DHT22;16639;51.488;0.152;2023-07-31T12:01:29;20.30;99.90
29731;DHT22;16639;51.488;0.152;2023-07-31T12:03:58;20.30;99.90
29731;DHT22;16639;51.488;0.152;2023-07-31T12:06:33;20.20;99.90
29731;DHT22;16639;51.488;0.152;2023-07-31T12:09:07;20.20;99.90
29731;DHT22;16639;51.488;0.152;2023-07-31T12:11:45;20.30;99.90
29731;DHT22;16639;51.488;0.152;2023-07-31T12:14:24;20.30;99.90
29731;DHT22;16639;51.488;0.152;2023-07-31T12:16:57;20.30;99.90
29731;DHT22;16639;51.488;0.152;2023-07-31T12:19:27;20.40;99.90
29731;DHT22;16639;51.488;0.152;2023-07-31T12:21:59;21.10;99.90
29731;DHT22;16639;51.488;0.152;2023-07-31T12:24:27;20.40;99.90
29731;DHT22;16639;51.488;0.152;2023-07-31T12:26:55;20.40;99.90
29731;DHT22;16639;51.488;0.152;2023-07-31T12:29:22;20.40;99.90
29731;DHT22;16639;51.488;0.152;2023-07-31T12:31:50;20.30;99.90
29731;DHT22;16639;51.488;0.152;2023-07-31T12:34:20;20.20;99.90
29731;DHT22;16639;51.488;0.152;2023-07-31T12:36:48;20.20;99.90
29731;DHT22;16639;51.488;0.152;2023-07-31T12:39:16;20.10;99.90
29731;DHT22;16639;51.488;0.152;2023-07-31T12:41:44;20.00;99.90
29731;DHT22;16639;51.488;0.152;2023-07-31T12:44:11;19.90;99.90
29731;DHT22;16639;51.488;0.152;2023-07-31T12:46:38;19.90;99.90
29731;DHT22;16639;51.488;0.152;2023-07-31T12:49:06;19.90;99.90
29731;DHT22;16639;51.488;0.152;2023-07-31T12:51:34;20.20;99.90
29731;DHT22;16639;51.488;0.152;2023-07-31T12:54:01;19.90;99.90
29731;DHT22;16639;51.488;0.152;2023-07-31T12:56:29;19.90;99.90
29731;DHT22;16639;51.488;0.152;2023-07-31T12:58:56;19.90;99.90
29731;DHT22;16639;51.488;0.152;2023-07-31T13:01:23;19.90;99.90
29731;DHT22;16639;51.488;0.152;2023-07-31T13:03:51;19.90;99.90
29731;DHT22;16639;51.488;0.152;2023-07-31T13:06:19;19.90;99.90
29731;DHT22;16639;51.488;0.152;2023-07-31T13:08:46;19.80;99.90
29731;DHT22;16639;51.488;0.152;2023-07-31T13:11:14;19.80;99.90
29731;DHT22;16639;51.488;0.152;2023-07-31T13:13:42;19.80;99.90
29731;DHT22;16639;51.488;0.152;2023-07-31T13:16:09;19.80;99.90
29731;DHT22;16639;51.488;0.152;2023-07-31T13:18:36;19.80;99.90
29731;DHT22;16639;51.488;0.152;2023-07-31T13:21:04;19.80;99.90
29731;DHT22;16639;51.488;0.152;2023-07-31T13:23:31;19.70;99.90
29731;DHT22;16639;51.488;0.152;2023-07-31T13:25:59;19.50;99.90
29731;DHT22;16639;51.488;0.152;2023-07-31T13:28:26;19.40;99.90
29731;DHT22;16639;51.488;0.152;2023-07-31T13:30:53;19.20;99.90
29731;DHT22;16639;51.488;0.152;2023-07-31T13:33:21;19.10;99.90
29731;DHT22;16639;51.488;0.152;2023-07-31T13:36:03;19.00;99.90
29731;DHT22;16639;51.488;0.152;2023-07-31T13:38:31;18.90;99.90
29731;DHT22;16639;51.488;0.152;2023-07-31T13:40:58;18.80;99.90
29731;DHT22;16639;51.488;0.152;2023-07-31T13:43:26;18.70;99.90
29731;DHT22;16639;51.488;0.152;2023-07-31T13:45:54;18.70;99.90
29731;DHT22;16639;51.488;0.152;2023-07-31T13:48:21;18.70;99.90
29731;DHT22;16639;51.488;0.152;2023-07-31T13:50:49;18.60;99.90
29731;DHT22;16639;51.488;0.152;2023-07-31T13:53:16;18.50;99.90
29731;DHT22;16639;51.488;0.152;2023-07-31T13:55:43;18.50;99.90
29731;DHT22;16639;51.488;0.152;2023-07-31T13:58:12;18.40;99.90
29731;DHT22;16639;51.488;0.152;2023-07-31T14:00:40;18.30;99.90
29731;DHT22;16639;51.488;0.152;2023-07-31T14:03:07;18.20;99.90
29731;DHT22;16639;51.488;0.152;2023-07-31T14:05:35;18.20;99.90
29731;DHT22;16639;51.488;0.152;2023-07-31T14:08:03;18.10;99.90
29731;DHT22;16639;51.488;0.152;2023-07-31T14:10:30;18.10;99.90
29731;DHT22;16639;51.488;0.152;2023-07-31T14:13:00;18.00;99.90
29731;DHT22;16639;51.488;0.152;2023-07-31T14:15:27;18.00;99.90
29731;DHT22;16639;51.488;0.152;2023-07-31T14:17:55;17.90;99.90
29731;DHT22;16639;51.488;0.152;2023-07-31T14:20:28;17.90;99.90
29731;DHT22;16639;51.488;0.152;2023-07-31T14:22:55;17.90;99.90
29731;DHT22;16639;51.488;0.152;2023-07-31T14:25:23;17.40;99.90
29731;DHT22;16639;51.488;0.152;2023-07-31T14:27:50;17.90;99.90
29731;DHT22;16639;51.488;0.152;2023-07-31T14:30:18;17.90;99.90
29731;DHT22;16639;51.488;0.152;2023-07-31T14:32:46;17.90;99.90
29731;DHT22;16639;51.488;0.152;2023-07-31T14:35:13;17.90;99.90
29731;DHT22;16639;51.488;0.152;2023-07-31T14:37:42;17.80;99.90
29731;DHT22;16639;51.488;0.152;2023-07-31T14:40:11;17.60;99.90
29731;DHT22;16639;51.488;0.152;2023-07-31T14:42:39;17.90;99.90
29731;DHT22;16639;51.488;0.152;2023-07-31T14:45:07;17.90;99.90
29731;DHT22;16639;51.488;0.152;2023-07-31T14:47:36;17.90;99.90
29731;DHT22;16639;51.488;0.152;2023-07-31T14:50:04;17.90;99.90
29731;DHT22;16639;51.488;0.152;2023-07-31T14:52:32;17.90;99.90
29731;DHT22;16639;51.488;0.152;2023-07-31T14:54:59;17.90;99.90
29731;DHT22;16639;51.488;0.152;2023-07-31T14:57:27;17.90;99.90
29731;DHT22;16639;51.488;0.152;2023-07-31T14:59:54;17.80;99.90
29731;DHT22;16639;51.488;0.152;2023-07-31T15:02:22;17.80;99.90
29731;DHT22;16639;51.488;0.152;2023-07-31T15:04:49;17.80;99.90
29731;DHT22;16639;51.488;0.152;2023-07-31T15:07:17;17.80;99.90
29731;DHT22;16639;51.488;0.152;2023-07-31T15:09:44;17.90;99.90
29731;DHT22;16639;51.488;0.152;2023-07-31T15:12:12;17.80;99.90
29731;DHT22;16639;51.488;0.152;2023-07-31T15:14:40;17.90;99.90
29731;DHT22;16639;51.488;0.152;2023-07-31T15:17:08;18.00;99.90
29731;DHT22;16639;51.488;0.152;2023-07-31T15:19:36;18.40;99.90
29731;DHT22;16639;51.488;0.152;2023-07-31T15:22:04;18.20;99.90
29731;DHT22;16639;51.488;0.152;2023-07-31T15:24:32;18.30;99.90
29731;DHT22;16639;51.488;0.152;2023-07-31T15:26:59;18.40;99.90
29731;DHT22;16639;51.488;0.152;2023-07-31T15:29:30;18.50;99.90
29731;DHT22;16639;51.488;0.152;2023-07-31T15:31:58;18.40;99.90
29731;DHT22;16639;51.488;0.152;2023-07-31T15:34:26;18.40;99.90
29731;DHT22;16639;51.488;0.152;2023-07-31T15:36:53;18.40;99.90
29731;DHT22;16639;51.488;0.152;2023-07-31T15:39:21;18.40;99.90
29731;DHT22;16639;51.488;0.152;2023-07-31T15:41:49;18.30;99.90
29731;DHT22;16639;51.488;0.152;2023-07-31T15:44:16;18.30;99.90
29731;DHT22;16639;51.488;0.152;2023-07-31T15:46:44;18.40;99.90